createdAt,value
2022-12-19T00:01:37.868Z,2.80
2022-12-19T00:04:08.161Z,2.80
2022-12-19T00:06:35.706Z,2.80
2022-12-19T00:09:02.586Z,2.70
2022-12-19T00:11:29.829Z,2.80
2022-12-19T00:13:57.170Z,2.80
2022-12-19T00:16:25.643Z,2.70
2022-12-19T00:18:55.161Z,2.70
2022-12-19T00:21:23.629Z,2.70
2022-12-19T00:23:50.688Z,2.60
2022-12-19T00:26:21.947Z,2.50
2022-12-19T00:28:50.309Z,2.60
2022-12-19T00:31:18.409Z,2.50
2022-12-19T00:33:45.795Z,2.60
2022-12-19T00:36:21.787Z,2.60
2022-12-19T00:38:51.406Z,2.50
2022-12-19T00:41:19.943Z,2.50
2022-12-19T00:43:54.126Z,2.50
2022-12-19T00:46:21.105Z,2.50
2022-12-19T00:48:47.995Z,2.50
2022-12-19T00:51:16.006Z,2.60
2022-12-19T00:53:43.527Z,2.60
2022-12-19T00:56:12.136Z,2.60
2022-12-19T00:58:43.437Z,2.50
2022-12-19T01:01:16.767Z,2.50
2022-12-19T01:04:04.345Z,2.50
2022-12-19T01:06:30.757Z,2.50
2022-12-19T01:08:58.562Z,2.50
2022-12-19T01:11:44.878Z,2.50
2022-12-19T01:14:17.438Z,2.50
2022-12-19T01:16:47.976Z,2.50
2022-12-19T01:19:15.105Z,2.60
2022-12-19T01:21:42.795Z,2.60
2022-12-19T01:24:10.225Z,2.50
2022-12-19T01:26:37.594Z,2.60
2022-12-19T01:29:04.711Z,2.50
2022-12-19T01:31:32.771Z,2.50
2022-12-19T01:34:00.089Z,2.50
2022-12-19T01:36:28.322Z,2.50
2022-12-19T01:38:58.451Z,2.50
2022-12-19T01:41:25.608Z,2.50
2022-12-19T01:44:01.005Z,2.50
2022-12-19T01:46:48.039Z,2.50
2022-12-19T01:49:19.214Z,2.50
2022-12-19T01:51:52.639Z,2.50
2022-12-19T01:54:25.472Z,2.40
2022-12-19T01:56:54.472Z,2.40
2022-12-19T01:59:23.974Z,2.40
2022-12-19T02:01:54.192Z,2.40
2022-12-19T02:04:21.327Z,2.30
2022-12-19T02:06:48.630Z,2.30
2022-12-19T02:09:15.718Z,2.30
2022-12-19T02:11:42.547Z,2.30
2022-12-19T02:14:09.468Z,2.30
2022-12-19T02:17:02.589Z,2.30
2022-12-19T02:19:35.850Z,2.30
2022-12-19T02:22:08.637Z,2.30
2022-12-19T02:24:48.657Z,2.30
2022-12-19T02:27:26.866Z,2.30
2022-12-19T02:29:56.528Z,2.30
2022-12-19T02:32:29.210Z,2.30
2022-12-19T02:34:58.566Z,2.20
2022-12-19T02:37:28.206Z,2.30
2022-12-19T02:39:58.998Z,2.30
2022-12-19T02:42:28.463Z,2.30
2022-12-19T02:45:00.932Z,2.30
2022-12-19T02:47:28.634Z,2.30
2022-12-19T02:49:55.799Z,2.30
2022-12-19T02:52:22.558Z,2.30
2022-12-19T02:54:53.874Z,2.30
2022-12-19T02:57:21.019Z,2.30
2022-12-19T02:59:49.983Z,2.30
2022-12-19T03:02:31.914Z,2.20
2022-12-19T03:05:03.474Z,2.30
2022-12-19T03:07:40.270Z,2.30
2022-12-19T03:10:18.657Z,2.30
2022-12-19T03:12:57.833Z,2.30
2022-12-19T03:15:24.716Z,2.30
2022-12-19T03:17:52.307Z,2.20
2022-12-19T03:20:25.521Z,2.20
2022-12-19T03:22:52.929Z,2.20
2022-12-19T03:25:20.686Z,2.20
2022-12-19T03:27:48.891Z,2.20
2022-12-19T03:30:16.319Z,2.20
2022-12-19T03:32:45.409Z,2.10
2022-12-19T03:35:17.322Z,2.10
2022-12-19T03:37:44.772Z,2.10
2022-12-19T03:40:14.388Z,2.10
2022-12-19T03:43:00.459Z,2.10
2022-12-19T03:45:33.823Z,2.10
2022-12-19T03:48:33.055Z,2.10
2022-12-19T03:51:09.555Z,2.10
2022-12-19T03:53:54.283Z,2.00
2022-12-19T03:56:40.615Z,2.00
2022-12-19T03:59:10.303Z,1.90
2022-12-19T04:01:38.758Z,1.90
2022-12-19T04:04:06.621Z,1.90
2022-12-19T04:06:35.026Z,2.00
2022-12-19T04:09:02.377Z,2.00
2022-12-19T04:11:31.245Z,1.90
2022-12-19T04:14:01.021Z,1.90
2022-12-19T04:16:33.565Z,1.90
2022-12-19T04:19:05.823Z,1.90
2022-12-19T04:21:36.064Z,1.90
2022-12-19T04:24:06.162Z,1.90
2022-12-19T04:26:35.007Z,1.90
2022-12-19T04:29:04.065Z,1.90
2022-12-19T04:31:31.232Z,1.80
2022-12-19T04:33:58.215Z,1.90
2022-12-19T04:36:25.651Z,1.90
2022-12-19T04:38:53.294Z,1.90
2022-12-19T04:41:20.169Z,1.90
2022-12-19T04:43:46.966Z,1.80
2022-12-19T04:46:14.064Z,1.70
2022-12-19T04:48:40.924Z,1.70
2022-12-19T04:51:07.698Z,1.70
2022-12-19T04:53:35.063Z,1.70
2022-12-19T04:56:06.327Z,1.60
2022-12-19T04:58:33.751Z,1.60
2022-12-19T05:01:07.785Z,1.60
2022-12-19T05:03:35.446Z,1.60
2022-12-19T05:06:12.792Z,1.50
2022-12-19T05:08:40.709Z,1.50
2022-12-19T05:11:08.102Z,1.50
2022-12-19T05:13:35.154Z,1.50
2022-12-19T05:16:03.283Z,1.50
2022-12-19T05:18:30.692Z,1.40
2022-12-19T05:20:57.521Z,1.40
2022-12-19T05:23:24.362Z,1.40
2022-12-19T05:25:51.681Z,1.30
2022-12-19T05:28:19.203Z,1.30
2022-12-19T05:30:51.900Z,1.30
2022-12-19T05:33:19.346Z,1.30
2022-12-19T05:35:48.231Z,1.20
2022-12-19T05:38:15.019Z,1.20
2022-12-19T05:40:45.101Z,1.20
2022-12-19T05:43:11.971Z,1.10
2022-12-19T05:45:39.280Z,1.10
2022-12-19T05:48:06.216Z,1.10
2022-12-19T05:50:36.320Z,1.10
2022-12-19T05:53:03.132Z,1.10
2022-12-19T05:55:29.968Z,1.10
2022-12-19T05:57:56.740Z,1.10
2022-12-19T06:00:23.588Z,1.10
2022-12-19T06:02:50.560Z,1.00
2022-12-19T06:05:17.483Z,1.00
2022-12-19T06:07:44.314Z,0.90
2022-12-19T06:10:11.329Z,0.90
2022-12-19T06:12:38.200Z,0.90
2022-12-19T06:15:05.259Z,0.90
2022-12-19T06:17:32.079Z,0.80
2022-12-19T06:19:58.863Z,0.80
2022-12-19T06:22:25.784Z,0.80
2022-12-19T06:24:52.542Z,0.80
2022-12-19T06:27:19.843Z,0.80
2022-12-19T06:29:46.640Z,0.80
2022-12-19T06:32:13.511Z,0.80
2022-12-19T06:35:03.335Z,0.70
2022-12-19T06:37:27.279Z,0.70
2022-12-19T06:39:54.050Z,0.70
2022-12-19T06:42:24.555Z,0.70
2022-12-19T06:44:52.390Z,0.70
2022-12-19T06:47:19.903Z,0.60
2022-12-19T06:49:50.307Z,0.60
2022-12-19T06:52:17.454Z,0.60
2022-12-19T06:54:44.372Z,0.50
2022-12-19T06:57:11.406Z,0.50
2022-12-19T06:59:38.389Z,0.50
2022-12-19T07:02:24.897Z,0.40
2022-12-19T07:04:55.206Z,0.40
2022-12-19T07:07:22.137Z,0.40
2022-12-19T07:09:49.235Z,0.30
2022-12-19T07:12:16.307Z,0.30
2022-12-19T07:14:43.252Z,0.20
2022-12-19T07:17:10.367Z,0.20
2022-12-19T07:19:38.043Z,0.20
2022-12-19T07:22:05.296Z,0.20
2022-12-19T07:24:32.603Z,0.20
2022-12-19T07:26:59.483Z,0.20
2022-12-19T07:29:26.853Z,0.10
2022-12-19T07:31:53.944Z,0.10
2022-12-19T07:34:21.186Z,0.10
2022-12-19T07:36:47.971Z,0.00
2022-12-19T07:39:15.252Z,0.00
2022-12-19T07:41:42.437Z,0.00
2022-12-19T07:44:09.357Z,0.00
2022-12-19T07:46:36.538Z,0.00
2022-12-19T07:49:03.579Z,-0.10
2022-12-19T07:51:30.774Z,-0.20
2022-12-19T07:53:57.843Z,-0.20
2022-12-19T07:56:25.287Z,-0.20
2022-12-19T07:58:52.962Z,-0.20
2022-12-19T08:01:20.496Z,-0.20
2022-12-19T08:03:47.848Z,-0.20
2022-12-19T08:06:19.181Z,-0.20
2022-12-19T08:08:46.096Z,-0.20
2022-12-19T08:11:14.056Z,-0.30
2022-12-19T08:13:46.371Z,-0.30
2022-12-19T08:16:14.287Z,-0.30
2022-12-19T08:18:41.162Z,-0.40
2022-12-19T08:21:08.414Z,-0.40
2022-12-19T08:23:35.278Z,-0.40
2022-12-19T08:26:03.954Z,-0.40
2022-12-19T08:28:31.244Z,-0.40
2022-12-19T08:30:58.263Z,-0.40
2022-12-19T08:33:25.166Z,-0.50
2022-12-19T08:35:52.268Z,-0.40
2022-12-19T08:38:19.196Z,-0.50
2022-12-19T08:40:51.737Z,-0.40
2022-12-19T08:43:18.545Z,-0.40
2022-12-19T08:45:45.923Z,-0.50
2022-12-19T08:48:12.819Z,-0.40
2022-12-19T08:50:39.651Z,-0.40
2022-12-19T08:53:06.561Z,-0.40
2022-12-19T08:55:35.673Z,-0.40
2022-12-19T08:58:02.466Z,-0.40
2022-12-19T09:00:29.748Z,-0.40
2022-12-19T09:02:56.763Z,-0.30
2022-12-19T09:06:01.831Z,-0.40
2022-12-19T09:08:10.704Z,-0.40
2022-12-19T09:10:38.357Z,-0.40
2022-12-19T09:13:05.498Z,-0.30
2022-12-19T09:15:32.346Z,-0.40
2022-12-19T09:17:59.184Z,-0.40
2022-12-19T09:20:26.158Z,-0.40
2022-12-19T09:22:53.336Z,-0.30
2022-12-19T09:25:20.123Z,-0.30
2022-12-19T09:28:25.318Z,-0.20
2022-12-19T09:30:33.879Z,-0.20
2022-12-19T09:33:02.408Z,-0.20
2022-12-19T09:35:30.650Z,-0.30
2022-12-19T09:38:00.351Z,-0.20
2022-12-19T09:40:29.096Z,-0.20
2022-12-19T09:43:18.800Z,-0.10
2022-12-19T09:45:57.483Z,-0.20
2022-12-19T09:48:25.052Z,-0.20
2022-12-19T09:50:56.530Z,-0.20
2022-12-19T09:53:40.433Z,-0.20
2022-12-19T09:56:10.998Z,-0.20
2022-12-19T09:58:40.933Z,-0.20
2022-12-19T10:01:23.387Z,-0.10
2022-12-19T10:04:02.257Z,-0.10
2022-12-19T10:07:11.504Z,0.00
2022-12-19T10:11:37.726Z,0.00
2022-12-19T10:12:45.179Z,0.00
2022-12-19T10:15:08.443Z,0.00
2022-12-19T10:17:42.996Z,0.10
2022-12-19T10:20:22.186Z,0.20
2022-12-19T10:22:58.195Z,0.10
2022-12-19T10:25:24.961Z,0.20
2022-12-19T10:27:59.629Z,0.30
2022-12-19T10:30:29.078Z,0.30
2022-12-19T10:33:04.758Z,0.30
2022-12-19T10:35:36.083Z,0.40
2022-12-19T10:38:12.470Z,0.40
2022-12-19T10:41:14.760Z,0.50
2022-12-19T10:43:47.416Z,0.60
2022-12-19T10:46:18.028Z,0.70
2022-12-19T10:48:45.164Z,0.70
2022-12-19T10:51:14.328Z,0.80
2022-12-19T10:53:41.242Z,0.90
2022-12-19T10:56:20.683Z,1.00
2022-12-19T10:58:51.439Z,1.00
2022-12-19T11:01:24.391Z,1.00
2022-12-19T11:04:09.722Z,1.10
2022-12-19T11:06:39.681Z,1.10
2022-12-19T11:09:32.262Z,1.20
2022-12-19T11:14:46.858Z,1.20
2022-12-19T11:20:08.199Z,1.20
2022-12-19T11:25:22.513Z,1.30
2022-12-19T11:29:32.462Z,1.40
2022-12-19T11:29:36.670Z,1.30
2022-12-19T11:29:40.930Z,1.30
2022-12-19T11:30:43.839Z,1.40
2022-12-19T11:34:26.968Z,1.40
2022-12-19T11:37:12.317Z,1.50
2022-12-19T11:40:05.604Z,1.50
2022-12-19T11:43:10.960Z,1.50
2022-12-19T11:45:49.406Z,1.60
2022-12-19T11:48:34.606Z,1.60
2022-12-19T11:51:10.814Z,1.60
2022-12-19T11:53:40.582Z,1.70
2022-12-19T11:56:16.357Z,1.70
2022-12-19T11:58:50.007Z,1.70
2022-12-19T12:01:17.082Z,1.70
2022-12-19T12:04:03.330Z,1.70
2022-12-19T12:06:34.792Z,1.70
2022-12-19T12:12:52.571Z,1.80
2022-12-19T12:20:33.131Z,1.80
2022-12-19T12:27:43.714Z,1.80
2022-12-19T12:30:30.865Z,1.80
2022-12-19T12:31:13.019Z,1.80
2022-12-19T12:31:40.802Z,1.70
2022-12-19T12:31:47.569Z,1.70
2022-12-19T12:31:50.279Z,1.70
2022-12-19T12:35:41.441Z,1.70
2022-12-19T12:38:48.933Z,1.70
2022-12-19T12:41:51.152Z,1.70
2022-12-19T12:44:18.202Z,1.70
2022-12-19T12:47:16.500Z,1.70
2022-12-19T12:49:45.862Z,1.70
2022-12-19T12:52:21.957Z,1.70
2022-12-19T12:54:49.536Z,1.70
2022-12-19T12:57:21.455Z,1.70
2022-12-19T13:00:09.179Z,1.70
2022-12-19T13:02:36.714Z,1.60
2022-12-19T13:05:23.323Z,1.60
2022-12-19T13:07:54.574Z,1.70
2022-12-19T13:10:23.663Z,1.70
2022-12-19T13:13:00.810Z,1.70
2022-12-19T13:15:27.713Z,1.70
2022-12-19T13:17:54.766Z,1.60
2022-12-19T13:20:27.663Z,1.60
2022-12-19T13:23:00.709Z,1.60
2022-12-19T13:25:27.959Z,1.60
2022-12-19T13:27:58.916Z,1.60
2022-12-19T13:30:27.976Z,1.70
2022-12-19T13:32:54.841Z,1.70
2022-12-19T13:36:31.063Z,1.70
2022-12-19T13:39:49.008Z,1.70
2022-12-19T13:41:30.429Z,1.80
2022-12-19T13:44:00.016Z,1.90
2022-12-19T13:46:38.527Z,1.90
2022-12-19T13:49:14.592Z,1.90
2022-12-19T13:51:43.217Z,1.90
2022-12-19T13:54:21.015Z,1.90
2022-12-19T13:56:47.919Z,1.90
2022-12-19T13:59:15.173Z,1.90
2022-12-19T14:01:42.647Z,1.90
2022-12-19T14:04:12.842Z,1.90
2022-12-19T14:06:46.632Z,1.90
2022-12-19T14:11:26.459Z,1.90
2022-12-19T14:13:48.867Z,1.90
2022-12-19T14:15:35.303Z,1.90
2022-12-19T14:18:41.913Z,1.90
2022-12-19T14:22:10.309Z,1.90
2022-12-19T14:23:43.416Z,1.90
2022-12-19T14:28:26.305Z,1.90
2022-12-19T14:29:02.444Z,1.90
2022-12-19T14:31:30.346Z,1.90
2022-12-19T14:34:42.902Z,1.90
2022-12-19T14:36:48.923Z,1.90
2022-12-19T14:39:24.875Z,1.90
2022-12-19T14:42:32.980Z,1.90
2022-12-19T14:54:03.653Z,1.90
2022-12-19T14:54:04.129Z,1.90
2022-12-19T14:54:22.844Z,1.90
2022-12-19T14:57:05.052Z,1.80
2022-12-19T14:59:33.168Z,1.80
2022-12-19T15:02:00.191Z,1.80
2022-12-19T15:04:50.971Z,1.80
2022-12-19T15:07:25.171Z,1.70
2022-12-19T15:11:07.709Z,1.80
2022-12-19T15:14:54.653Z,1.70
2022-12-19T15:16:04.709Z,1.80
2022-12-19T15:18:41.398Z,1.70
2022-12-19T15:21:12.958Z,1.70
2022-12-19T15:23:39.818Z,1.70
2022-12-19T15:26:18.025Z,1.80
2022-12-19T15:28:49.965Z,1.80
2022-12-19T15:31:27.551Z,1.80
2022-12-19T15:36:41.862Z,1.70
2022-12-19T15:39:08.734Z,1.70
2022-12-19T15:41:36.196Z,1.70
2022-12-19T15:44:07.669Z,1.70
2022-12-19T15:46:34.700Z,1.70
2022-12-19T15:49:02.298Z,1.70
2022-12-19T15:51:29.446Z,1.70
2022-12-19T15:54:08.973Z,1.70
2022-12-19T15:56:48.448Z,1.70
2022-12-19T15:59:37.423Z,1.70
2022-12-19T16:02:13.598Z,1.70
2022-12-19T16:04:40.657Z,1.80
2022-12-19T16:07:14.937Z,1.80
2022-12-19T16:09:41.745Z,1.80
2022-12-19T16:12:12.846Z,1.80
2022-12-19T16:14:39.781Z,1.80
2022-12-19T16:17:09.639Z,1.80
2022-12-19T16:19:36.503Z,1.80
2022-12-19T16:22:09.919Z,1.80
2022-12-19T16:24:36.781Z,1.80
2022-12-19T16:27:03.951Z,1.80
2022-12-19T16:29:31.398Z,1.80
2022-12-19T16:31:58.410Z,1.80
2022-12-19T16:34:25.283Z,1.70
2022-12-19T16:36:52.413Z,1.70
2022-12-19T16:39:19.666Z,1.70
2022-12-19T16:41:47.344Z,1.60
2022-12-19T16:44:19.734Z,1.60
2022-12-19T16:46:50.986Z,1.60
2022-12-19T16:49:24.882Z,1.60
2022-12-19T16:51:51.769Z,1.50
2022-12-19T16:54:19.006Z,1.60
2022-12-19T16:56:49.997Z,1.60
2022-12-19T16:59:19.116Z,1.60
2022-12-19T17:01:46.849Z,1.60
2022-12-19T17:04:17.010Z,1.60
2022-12-19T17:06:44.603Z,1.60
2022-12-19T17:09:18.884Z,1.60
2022-12-19T17:11:48.226Z,1.60
2022-12-19T17:14:17.519Z,1.60
2022-12-19T17:16:44.599Z,1.60
2022-12-19T17:19:17.200Z,1.60
2022-12-19T17:21:44.062Z,1.60
2022-12-19T17:24:13.811Z,1.70
2022-12-19T17:26:40.647Z,1.70
2022-12-19T17:29:07.492Z,1.70
2022-12-19T17:31:38.429Z,1.60
2022-12-19T17:34:07.111Z,1.60
2022-12-19T17:36:37.533Z,1.60
2022-12-19T17:39:17.198Z,1.70
2022-12-19T17:41:44.036Z,1.70
2022-12-19T17:44:11.833Z,1.70
2022-12-19T17:46:38.865Z,1.70
2022-12-19T17:49:06.056Z,1.70
2022-12-19T17:51:32.934Z,1.70
2022-12-19T17:53:59.789Z,1.70
2022-12-19T17:56:26.658Z,1.70
2022-12-19T17:58:55.808Z,1.70
2022-12-19T18:01:24.204Z,1.80
2022-12-19T18:03:52.460Z,1.80
2022-12-19T18:06:20.005Z,1.90
2022-12-19T18:08:47.011Z,1.80
2022-12-19T18:11:21.609Z,1.80
2022-12-19T18:13:48.709Z,1.90
2022-12-19T18:16:17.930Z,1.90
2022-12-19T18:18:45.412Z,1.90
2022-12-19T18:21:17.089Z,1.90
2022-12-19T18:23:46.760Z,1.90
2022-12-19T18:26:13.595Z,1.90
2022-12-19T18:28:41.227Z,2.00
2022-12-19T18:31:25.787Z,1.90
2022-12-19T18:33:54.362Z,1.90
2022-12-19T18:36:23.128Z,2.00
2022-12-19T18:38:50.364Z,1.90
2022-12-19T18:41:17.904Z,2.00
2022-12-19T18:43:45.030Z,2.00
2022-12-19T18:46:16.555Z,2.00
2022-12-19T18:48:45.276Z,2.00
2022-12-19T18:51:16.612Z,2.00
2022-12-19T18:53:44.192Z,2.00
2022-12-19T18:56:11.132Z,2.10
2022-12-19T18:58:38.562Z,2.10
2022-12-19T19:01:06.398Z,2.10
2022-12-19T19:03:35.160Z,2.20
2022-12-19T19:06:04.038Z,2.10
2022-12-19T19:08:33.072Z,2.00
2022-12-19T19:11:00.469Z,2.00
2022-12-19T19:13:27.716Z,2.00
2022-12-19T19:15:59.051Z,2.00
2022-12-19T19:18:27.176Z,2.00
2022-12-19T19:21:00.692Z,1.90
2022-12-19T19:23:29.786Z,1.90
2022-12-19T19:25:56.657Z,1.90
2022-12-19T19:28:23.473Z,1.90
2022-12-19T19:30:51.409Z,1.90
2022-12-19T19:33:22.716Z,1.90
2022-12-19T19:35:51.915Z,1.90
2022-12-19T19:38:19.589Z,1.90
2022-12-19T19:40:46.575Z,1.90
2022-12-19T19:43:14.719Z,1.90
2022-12-19T19:45:43.607Z,1.90
2022-12-19T19:48:10.620Z,2.00
2022-12-19T19:50:37.576Z,1.90
2022-12-19T19:53:04.932Z,1.90
2022-12-19T19:55:31.827Z,1.90
2022-12-19T19:57:58.711Z,1.90
2022-12-19T20:00:25.634Z,1.90
2022-12-19T20:02:52.735Z,1.90
2022-12-19T20:05:19.676Z,1.90
2022-12-19T20:07:46.566Z,1.90
2022-12-19T20:10:13.431Z,1.80
2022-12-19T20:12:40.298Z,1.80
2022-12-19T20:15:07.427Z,1.90
2022-12-19T20:17:34.241Z,1.90
2022-12-19T20:20:01.056Z,1.90
2022-12-19T20:22:29.220Z,1.90
2022-12-19T20:24:56.518Z,1.90
2022-12-19T20:27:23.708Z,1.90
2022-12-19T20:29:50.606Z,1.90
2022-12-19T20:32:17.752Z,1.90
2022-12-19T20:34:44.541Z,1.90
2022-12-19T20:37:11.365Z,1.90
2022-12-19T20:39:38.552Z,1.90
2022-12-19T20:42:06.700Z,1.90
2022-12-19T20:44:33.612Z,1.90
2022-12-19T20:47:00.684Z,1.80
2022-12-19T20:49:27.586Z,1.90
2022-12-19T20:51:54.570Z,1.90
2022-12-19T20:54:21.622Z,1.90
2022-12-19T20:56:48.462Z,1.90
2022-12-19T20:59:15.720Z,1.90
2022-12-19T21:01:42.713Z,1.80
2022-12-19T21:04:09.772Z,1.90
2022-12-19T21:06:38.118Z,1.80
2022-12-19T21:09:06.206Z,1.80
2022-12-19T21:11:33.835Z,1.70
2022-12-19T21:14:00.656Z,1.70
2022-12-19T21:16:30.938Z,1.70
2022-12-19T21:18:57.826Z,1.80
2022-12-19T21:21:25.589Z,1.80
2022-12-19T21:23:52.977Z,1.70
2022-12-19T21:26:20.871Z,1.70
2022-12-19T21:28:47.970Z,1.70
2022-12-19T21:31:15.110Z,1.70
2022-12-19T21:33:42.406Z,1.70
2022-12-19T21:36:10.801Z,1.70
2022-12-19T21:38:38.056Z,1.70
2022-12-19T21:41:06.040Z,1.70
2022-12-19T21:43:36.115Z,1.80
2022-12-19T21:46:10.276Z,1.70
2022-12-19T21:48:41.636Z,1.70
2022-12-19T21:51:09.222Z,1.70
2022-12-19T21:53:36.719Z,1.70
2022-12-19T21:56:22.510Z,1.70
2022-12-19T21:58:53.617Z,1.70
2022-12-19T22:01:20.839Z,1.70
2022-12-19T22:03:48.151Z,1.70
2022-12-19T22:06:21.013Z,1.70
2022-12-19T22:08:52.932Z,1.80
2022-12-19T22:11:20.905Z,1.80
2022-12-19T22:13:48.555Z,1.80
2022-12-19T22:16:15.906Z,1.70
2022-12-19T22:18:43.407Z,1.80
2022-12-19T22:21:11.713Z,1.70
2022-12-19T22:23:39.291Z,1.80
2022-12-19T22:26:36.265Z,1.70
2022-12-19T22:29:06.239Z,1.70
2022-12-19T22:31:33.966Z,1.70
2022-12-19T22:34:08.824Z,1.70
2022-12-19T22:36:36.231Z,1.60
2022-12-19T22:39:04.132Z,1.70
2022-12-19T22:41:32.614Z,1.70
2022-12-19T22:43:59.435Z,1.70
2022-12-19T22:46:28.186Z,1.60
2022-12-19T22:48:56.260Z,1.60
2022-12-19T22:51:23.446Z,1.60
2022-12-19T22:53:50.237Z,1.70
2022-12-19T22:56:18.290Z,1.70
2022-12-19T22:58:45.942Z,1.70
2022-12-19T23:01:18.070Z,1.70
2022-12-19T23:03:46.200Z,1.70
2022-12-19T23:06:13.853Z,1.70
2022-12-19T23:08:41.434Z,1.70
2022-12-19T23:11:09.506Z,1.70
2022-12-19T23:13:36.518Z,1.70
2022-12-19T23:16:03.419Z,1.80
2022-12-19T23:18:31.080Z,1.80
2022-12-19T23:21:10.544Z,1.80
2022-12-19T23:23:42.499Z,1.80
2022-12-19T23:26:15.535Z,1.80
2022-12-19T23:28:50.798Z,1.80
2022-12-19T23:31:17.792Z,1.80
2022-12-19T23:33:44.709Z,1.80
2022-12-19T23:36:11.643Z,1.80
2022-12-19T23:38:38.654Z,1.80
2022-12-19T23:41:06.839Z,1.80
2022-12-19T23:43:34.607Z,1.80
2022-12-19T23:46:21.896Z,1.80
2022-12-19T23:48:49.007Z,1.80
2022-12-19T23:51:21.884Z,1.80
2022-12-19T23:53:48.865Z,1.80
2022-12-19T23:56:19.828Z,1.80
2022-12-19T23:58:46.913Z,1.80
